Etusivu
METAR-TAF:

METAR-TAF

Lentoasemat :

Findelin kansainvälinen lentoasema

Luxemburg, Luxemburg

Leveyspiiri: 49-37N, Pituuspiiri: 006-13E, korkeus merenpinnasta: 376 m

Tämänhetkinen sää

Tämä raportti tehtiin 26 minuuttia sitten, kello 18.50 UTC
Tuuli 6 kn pohjoisen/luoteesta
Lämpötila 18°C
Kosteus 73%
Ilmanpaine 1020 hPa
Näkyvyys 10 km tai enemmän
Muutamia pilviä 4000 ft:n korkeudessa

METAR: ELLX 171850Z 33006KT 9999 FEW040 18/13 Q1020 NOSIG

Aika: 21:16 (19:16 UTC)

Sääennuste

Tämä raportti tehtiin 2 tuntia ja 16 minuuttia sitten, kello 17.00 UTC
Ennuste voimassa 17. päivästä klo 18 UTC - 18. päivään klo 24 UTC
Tuuli 8 kn pohjoisen/luoteesta
Näkyvyys 10 km tai enemmän
Muutamia pilviä 4000 ft:n korkeudessa
Todennäköisyys 30%
18. päivästä klo 03 UTC - 18. päivään klo 06 UTC
Tuuli 2 kn eri suunnista
Näkyvyys: 4000 m
utua

TAF: ELLX 171700Z 1718/1824 34008KT 9999 FEW040 PROB30 1803/1806 VRB02KT 4000 BR

Säähavainnot ja -ennusteet yli 4000 lentoasemalta (METAR- ja TAF-raportit).

Käytössä olevat sääasemat on merkitty karttaan keltaisilla ja punaisilla pisteillä.

Aseta hiiri pisteen päälle nähdäksesi sääaseman nimen.

Klikkaa sitten nähdäksesi säähavainnot ja -ennusteet.

Kartan vaihtaminen: klikkaa mustalla rastilla varustettuja vihreitä pisteitä, niin voit zoomata sisään; viivalla varustettua vihreää pistettä, niin voit zoomata ulos tai vihreitä nuolia, niin pääset viereisille kartoille.


METAR-TAF: